Time;durP1;ratioP1;P1;durP2;ratioP2;P2;SDS_P1;SDS_P2;PMS_P1;PMS_P2;Temp;Humidity;BMP_temperature;BMP_pressure;BME280_temperature;BME280_humidity;BME280_pressure;Samples;Min_cycle;Max_cycle;Signal;HPM_P1;HPM_P2
2024/01/15 00:01:29;;;;;;;16.42;2.80;;;4.80;99.90;;;;;;5034133;28;20609;-72
2024/01/15 00:03:55;;;;;;;16.77;2.35;;;4.80;99.90;;;;;;5034439;28;20030;-73
2024/01/15 00:06:21;;;;;;;17.65;3.20;;;4.80;99.90;;;;;;5033812;28;20385;-72
2024/01/15 00:08:46;;;;;;;19.42;2.65;;;4.70;99.90;;;;;;5033275;28;20116;-73
2024/01/15 00:11:12;;;;;;;14.15;3.08;;;4.70;99.90;;;;;;5033628;28;20044;-72
2024/01/15 00:13:37;;;;;;;17.75;3.22;;;4.70;99.90;;;;;;5033645;28;20025;-72
2024/01/15 00:16:05;;;;;;;19.25;3.20;;;4.60;99.90;;;;;;5033248;28;20034;-72
2024/01/15 00:18:31;;;;;;;15.65;3.10;;;4.60;99.90;;;;;;5033465;28;20461;-71
2024/01/15 00:20:56;;;;;;;17.17;3.10;;;4.60;99.90;;;;;;5033490;28;20024;-72
2024/01/15 00:23:22;;;;;;;12.85;2.90;;;4.60;99.90;;;;;;5031910;28;20033;-72
2024/01/15 00:25:48;;;;;;;17.30;3.17;;;4.60;99.90;;;;;;5033565;28;20040;-73
2024/01/15 00:28:13;;;;;;;14.80;2.65;;;4.60;99.90;;;;;;5033388;28;20025;-72
2024/01/15 00:30:39;;;;;;;15.95;2.38;;;4.60;99.90;;;;;;5033731;28;20113;-76
2024/01/15 00:33:05;;;;;;;15.90;2.70;;;4.60;99.90;;;;;;5033071;28;20034;-73
2024/01/15 00:35:30;;;;;;;11.55;2.30;;;4.60;99.90;;;;;;5032746;28;20469;-73
2024/01/15 00:37:56;;;;;;;11.45;2.03;;;4.60;99.90;;;;;;5033263;28;20450;-73
2024/01/15 00:40:21;;;;;;;18.40;2.55;;;4.70;99.90;;;;;;5033238;28;20045;-73
2024/01/15 00:42:47;;;;;;;11.98;2.63;;;4.80;99.90;;;;;;5033300;28;20032;-74
2024/01/15 00:45:12;;;;;;;14.35;2.40;;;4.80;99.90;;;;;;5033129;28;20075;-73
2024/01/15 00:47:38;;;;;;;12.10;2.63;;;4.80;99.90;;;;;;5033245;28;20036;-72
2024/01/15 00:50:04;;;;;;;13.45;2.55;;;4.80;99.90;;;;;;5032536;28;20429;-73
2024/01/15 00:52:29;;;;;;;19.40;3.20;;;4.80;99.90;;;;;;5032240;28;20503;-72
2024/01/15 00:54:55;;;;;;;15.00;2.88;;;4.70;99.90;;;;;;5032745;28;20022;-75
2024/01/15 00:57:21;;;;;;;11.43;2.97;;;4.70;99.90;;;;;;5033008;28;20030;-72
2024/01/15 00:59:48;;;;;;;14.30;3.33;;;4.70;99.90;;;;;;5032986;28;20076;-74
2024/01/15 01:02:13;;;;;;;14.45;2.60;;;4.70;99.90;;;;;;5032814;28;20037;-74
2024/01/15 01:04:40;;;;;;;10.80;2.70;;;4.60;99.90;;;;;;5032461;28;20029;-73
2024/01/15 01:07:05;;;;;;;12.25;2.90;;;4.50;99.90;;;;;;5033017;28;20065;-73
2024/01/15 01:09:31;;;;;;;14.75;3.00;;;4.50;99.90;;;;;;5032569;28;20081;-74
2024/01/15 01:11:58;;;;;;;12.35;3.40;;;4.40;99.90;;;;;;5032315;28;20497;-73
2024/01/15 01:14:24;;;;;;;12.98;3.55;;;4.40;99.90;;;;;;5032502;28;20109;-73
2024/01/15 01:16:49;;;;;;;14.10;3.28;;;4.40;99.90;;;;;;5032647;28;20448;-73
2024/01/15 01:19:15;;;;;;;16.05;3.03;;;4.40;99.90;;;;;;5032417;28;20527;-72
2024/01/15 01:21:40;;;;;;;22.38;3.25;;;4.40;99.90;;;;;;5032685;28;20431;-72
2024/01/15 01:24:06;;;;;;;15.57;2.90;;;4.50;99.90;;;;;;5031232;28;20112;-72
2024/01/15 01:26:32;;;;;;;12.88;2.65;;;4.50;99.90;;;;;;5032854;28;20025;-73
2024/01/15 01:28:57;;;;;;;14.60;4.30;;;4.60;99.90;;;;;;5032523;28;20033;-74
2024/01/15 01:31:23;;;;;;;14.07;2.92;;;4.60;99.90;;;;;;5032458;28;20045;-73
2024/01/15 01:33:49;;;;;;;14.85;3.17;;;4.70;99.90;;;;;;5032286;28;20027;-72
2024/01/15 01:36:15;;;;;;;13.52;3.30;;;4.80;99.90;;;;;;5032097;28;20136;-72
2024/01/15 01:38:41;;;;;;;16.05;2.92;;;4.80;99.90;;;;;;5032513;28;20037;-72
2024/01/15 01:41:07;;;;;;;13.65;3.22;;;4.80;99.90;;;;;;5032334;28;20025;-72
2024/01/15 01:43:32;;;;;;;15.10;3.40;;;4.80;99.90;;;;;;5032478;28;20036;-72
2024/01/15 01:46:00;;;;;;;12.30;2.97;;;4.70;99.90;;;;;;5032422;28;20037;-72
2024/01/15 01:48:26;;;;;;;7.68;2.70;;;4.60;99.90;;;;;;5031958;28;20029;-72
2024/01/15 01:50:54;;;;;;;9.82;3.13;;;4.50;99.90;;;;;;5032142;28;20038;-72
2024/01/15 01:53:20;;;;;;;10.95;3.00;;;4.50;99.90;;;;;;5032505;28;20160;-72
2024/01/15 01:55:47;;;;;;;15.02;3.35;;;4.40;99.90;;;;;;5032301;28;20095;-72
2024/01/15 01:58:13;;;;;;;13.15;3.70;;;4.40;99.90;;;;;;5030693;28;20048;-73
2024/01/15 02:00:39;;;;;;;12.48;4.00;;;4.30;99.90;;;;;;5030433;28;20391;-73
2024/01/15 02:03:05;;;;;;;13.35;4.32;;;4.30;99.90;;;;;;5030918;28;20327;-72
2024/01/15 02:05:31;;;;;;;16.67;4.90;;;4.20;99.90;;;;;;5034833;28;20028;-73
2024/01/15 02:07:56;;;;;;;17.25;5.10;;;4.20;99.90;;;;;;5036223;28;20461;-73
2024/01/15 02:10:22;;;;;;;19.02;5.25;;;4.10;99.90;;;;;;5035536;28;20053;-73
2024/01/15 02:12:48;;;;;;;17.95;4.03;;;4.20;99.90;;;;;;5035926;28;20021;-73
2024/01/15 02:15:14;;;;;;;20.73;3.90;;;4.30;99.90;;;;;;5035714;28;20025;-73
2024/01/15 02:18:02;;;;;;;7.18;3.00;;;4.30;99.90;;;;;;5036118;28;20033;-73
2024/01/15 02:20:28;;;;;;;18.92;3.90;;;4.30;99.90;;;;;;5035232;28;20370;-73
2024/01/15 02:22:53;;;;;;;12.35;2.97;;;4.40;99.90;;;;;;5035337;28;20036;-73
2024/01/15 02:25:20;;;;;;;12.63;2.92;;;4.40;99.90;;;;;;5035450;28;20052;-73
2024/01/15 02:27:47;;;;;;;14.15;3.17;;;4.40;99.90;;;;;;5035154;28;20465;-73
2024/01/15 02:30:13;;;;;;;15.40;3.50;;;4.40;99.90;;;;;;5035566;28;20021;-73
2024/01/15 02:32:39;;;;;;;16.23;3.33;;;4.50;99.90;;;;;;5035821;28;20108;-73
2024/01/15 02:35:04;;;;;;;18.92;3.33;;;4.60;99.90;;;;;;5034316;28;20022;-74
2024/01/15 02:37:30;;;;;;;17.48;3.80;;;4.60;99.90;;;;;;5035741;28;20029;-73
2024/01/15 02:39:55;;;;;;;16.50;3.10;;;4.60;99.90;;;;;;5035713;28;20493;-74
2024/01/15 02:42:21;;;;;;;11.65;2.47;;;4.70;99.90;;;;;;5035256;28;20072;-74
2024/01/15 02:44:48;;;;;;;14.93;3.00;;;4.80;99.90;;;;;;5035259;28;20060;-73
2024/01/15 02:47:14;;;;;;;11.68;2.45;;;4.80;99.90;;;;;;5035281;28;20068;-73
2024/01/15 02:49:39;;;;;;;12.63;1.98;;;4.90;99.90;;;;;;5035416;28;20049;-74
2024/01/15 02:52:05;;;;;;;9.48;1.75;;;4.90;99.90;;;;;;5035283;28;20037;-73
2024/01/15 02:54:31;;;;;;;6.65;1.75;;;4.90;99.90;;;;;;5035708;28;20358;-72
2024/01/15 02:56:56;;;;;;;10.65;1.80;;;4.90;99.90;;;;;;5034861;28;20474;-72
2024/01/15 02:59:22;;;;;;;6.43;1.98;;;4.80;99.90;;;;;;5035129;28;20037;-72
2024/01/15 03:01:47;;;;;;;8.82;3.05;;;4.80;99.90;;;;;;5033867;28;20082;-72
2024/01/15 03:04:13;;;;;;;10.13;2.40;;;4.80;99.90;;;;;;5035038;28;20025;-72
2024/01/15 03:06:38;;;;;;;9.65;2.70;;;4.70;99.90;;;;;;5035349;28;20095;-72
2024/01/15 03:09:05;;;;;;;4.93;2.45;;;4.60;99.90;;;;;;5034668;28;20557;-72
2024/01/15 03:11:37;;;;;;;7.70;2.40;;;4.60;99.90;;;;;;5034741;28;20065;-72
2024/01/15 03:14:02;;;;;;;11.85;3.20;;;4.50;99.90;;;;;;5034931;28;20473;-73
2024/01/15 03:16:28;;;;;;;8.07;2.60;;;4.50;99.90;;;;;;5033776;28;20033;-73
2024/01/15 03:18:53;;;;;;;6.82;2.55;;;4.50;99.90;;;;;;5034465;28;20021;-72
2024/01/15 03:21:19;;;;;;;4.65;2.90;;;4.40;99.90;;;;;;5034694;28;20040;-72
2024/01/15 03:23:44;;;;;;;7.82;2.70;;;4.30;99.90;;;;;;5034534;28;20029;-73
2024/01/15 03:26:10;;;;;;;9.27;3.13;;;4.30;99.90;;;;;;5034656;28;20354;-73
2024/01/15 03:28:35;;;;;;;15.05;3.80;;;4.10;99.90;;;;;;5034895;28;20029;-73
2024/01/15 03:31:01;;;;;;;9.65;3.58;;;4.00;99.90;;;;;;5034502;28;20477;-73
2024/01/15 03:33:26;;;;;;;13.73;4.75;;;4.00;99.90;;;;;;5034418;28;20044;-73
2024/01/15 03:35:52;;;;;;;11.38;4.30;;;3.90;99.90;;;;;;5034612;28;20029;-73
2024/01/15 03:38:17;;;;;;;11.07;4.28;;;3.80;99.90;;;;;;5034520;28;20397;-73
2024/01/15 03:40:43;;;;;;;12.73;4.57;;;3.80;99.90;;;;;;5034376;28;20476;-73
2024/01/15 03:43:08;;;;;;;14.70;4.60;;;3.80;99.90;;;;;;5034365;28;20040;-73
2024/01/15 03:45:34;;;;;;;20.30;5.55;;;3.70;99.90;;;;;;5034393;28;20025;-73
2024/01/15 03:47:59;;;;;;;13.65;4.95;;;3.80;99.90;;;;;;5034186;28;20033;-73
2024/01/15 03:50:25;;;;;;;18.60;5.18;;;3.80;99.90;;;;;;5034110;28;20076;-73
2024/01/15 03:52:51;;;;;;;14.77;4.18;;;3.90;99.90;;;;;;5034099;28;20025;-73
2024/01/15 03:55:16;;;;;;;17.02;4.25;;;4.00;99.90;;;;;;5033552;28;20025;-73
2024/01/15 03:57:42;;;;;;;16.23;4.28;;;4.00;99.90;;;;;;5033737;28;20033;-73
2024/01/15 04:00:08;;;;;;;16.65;4.65;;;4.10;99.90;;;;;;5034031;28;20034;-73
2024/01/15 04:02:33;;;;;;;13.35;4.03;;;4.10;99.90;;;;;;5033626;28;20033;-73
2024/01/15 04:04:59;;;;;;;14.77;4.30;;;4.10;99.90;;;;;;5033795;28;20617;-72
2024/01/15 04:07:24;;;;;;;10.45;4.00;;;4.10;99.90;;;;;;5033710;28;20112;-72
2024/01/15 04:09:50;;;;;;;14.00;4.10;;;4.00;99.90;;;;;;5033592;28;20056;-73
2024/01/15 04:12:15;;;;;;;11.88;3.78;;;3.90;99.90;;;;;;5033515;28;20045;-72
2024/01/15 04:14:41;;;;;;;9.27;3.67;;;3.90;99.90;;;;;;5033426;28;20057;-73
2024/01/15 04:17:06;;;;;;;12.52;4.00;;;3.80;99.90;;;;;;5033686;28;20104;-72
2024/01/15 04:19:32;;;;;;;9.55;3.72;;;3.80;99.90;;;;;;5033556;28;20033;-73
2024/01/15 04:21:57;;;;;;;10.82;4.22;;;3.70;99.90;;;;;;5033533;28;20196;-72
2024/01/15 04:24:23;;;;;;;17.55;4.50;;;3.70;99.90;;;;;;5033349;28;20033;-73
2024/01/15 04:26:48;;;;;;;15.52;4.40;;;3.60;99.90;;;;;;5032458;28;20088;-73
2024/01/15 04:29:14;;;;;;;12.23;4.13;;;3.60;99.90;;;;;;5033056;28;20481;-73
2024/01/15 04:31:40;;;;;;;12.68;4.40;;;3.50;99.90;;;;;;5033184;28;20041;-73
2024/01/15 04:34:05;;;;;;;14.82;4.20;;;3.50;99.90;;;;;;5033198;28;20052;-73
2024/01/15 04:36:31;;;;;;;17.20;4.40;;;3.50;99.90;;;;;;5033301;28;20035;-73
2024/01/15 04:38:56;;;;;;;18.60;4.85;;;3.50;99.90;;;;;;5031800;28;20116;-73
2024/01/15 04:41:22;;;;;;;20.58;5.22;;;3.50;99.90;;;;;;5033119;28;20039;-72
2024/01/15 04:43:47;;;;;;;21.50;5.45;;;3.50;99.90;;;;;;5033128;28;20099;-73
2024/01/15 04:46:13;;;;;;;12.00;5.30;;;3.50;99.90;;;;;;5033170;28;20037;-73
2024/01/15 04:48:38;;;;;;;17.45;5.25;;;3.50;99.90;;;;;;5033015;28;20469;-73
2024/01/15 04:51:05;;;;;;;9.15;4.03;;;3.60;99.90;;;;;;5033144;28;20049;-73
2024/01/15 04:53:31;;;;;;;11.00;4.00;;;3.70;99.90;;;;;;5032813;28;20029;-73
2024/01/15 04:55:57;;;;;;;12.10;3.70;;;3.70;99.90;;;;;;5032819;28;20030;-73
2024/01/15 04:58:25;;;;;;;11.80;3.78;;;3.70;99.90;;;;;;5032897;28;20111;-73
2024/01/15 05:00:51;;;;;;;11.05;4.22;;;3.70;99.90;;;;;;5032901;28;20037;-73
2024/01/15 05:03:16;;;;;;;14.40;4.22;;;3.70;99.90;;;;;;5032959;28;20029;-72
2024/01/15 05:05:42;;;;;;;13.35;4.10;;;3.70;99.90;;;;;;5032998;28;20029;-72
2024/01/15 05:08:07;;;;;;;13.68;3.97;;;3.80;99.90;;;;;;5032956;28;20029;-72
2024/01/15 05:10:33;;;;;;;17.08;4.57;;;3.80;99.90;;;;;;5032723;28;20064;-72
2024/01/15 05:12:58;;;;;;;18.10;5.30;;;3.80;99.90;;;;;;5032790;28;20032;-72
2024/01/15 05:15:24;;;;;;;20.65;5.32;;;3.90;99.90;;;;;;5032786;28;20057;-72
2024/01/15 05:17:49;;;;;;;18.27;4.82;;;4.00;99.90;;;;;;5032819;28;20035;-73
2024/01/15 05:20:15;;;;;;;16.95;4.95;;;4.00;99.90;;;;;;5032873;28;20164;-73
2024/01/15 05:22:40;;;;;;;17.92;4.95;;;4.10;99.90;;;;;;5032745;28;20072;-73
2024/01/15 05:25:06;;;;;;;13.80;3.78;;;4.10;99.90;;;;;;5032385;28;20100;-73
2024/01/15 05:27:32;;;;;;;16.33;4.13;;;4.20;99.90;;;;;;5032737;28;20435;-73
2024/01/15 05:29:57;;;;;;;20.33;3.40;;;4.30;99.90;;;;;;5032715;28;20036;-72
2024/01/15 05:32:23;;;;;;;22.40;4.55;;;4.30;99.90;;;;;;5032322;28;20432;-72
2024/01/15 05:34:49;;;;;;;23.30;3.88;;;4.30;99.90;;;;;;5032631;28;20131;-73
2024/01/15 05:37:14;;;;;;;24.58;3.65;;;4.30;99.90;;;;;;5032788;28;20065;-72
2024/01/15 05:39:40;;;;;;;15.88;3.92;;;4.30;99.90;;;;;;5035435;28;20029;-73
2024/01/15 05:42:05;;;;;;;16.48;3.80;;;4.40;99.90;;;;;;5036676;28;20040;-73
2024/01/15 05:44:31;;;;;;;21.90;3.60;;;4.40;99.90;;;;;;5036583;28;20037;-72
2024/01/15 05:46:56;;;;;;;15.63;4.18;;;4.50;99.90;;;;;;5036619;28;20021;-73
2024/01/15 05:49:22;;;;;;;18.27;3.90;;;4.50;99.90;;;;;;5036409;28;20359;-73
2024/01/15 05:51:48;;;;;;;19.58;3.88;;;4.50;99.90;;;;;;5036737;28;20369;-73
2024/01/15 05:54:13;;;;;;;15.43;3.88;;;4.50;99.90;;;;;;5034948;28;20124;-73
2024/01/15 05:56:39;;;;;;;16.35;3.67;;;4.60;99.90;;;;;;5036501;28;20045;-72
2024/01/15 05:59:04;;;;;;;19.88;4.05;;;4.60;99.90;;;;;;5036148;28;20433;-72
2024/01/15 06:01:30;;;;;;;17.35;4.05;;;4.60;99.90;;;;;;5036309;28;20021;-73
2024/01/15 06:03:55;;;;;;;18.08;4.20;;;4.60;99.90;;;;;;5036508;28;20025;-72
2024/01/15 06:06:21;;;;;;;18.42;4.40;;;4.60;99.90;;;;;;5036268;28;20022;-72
2024/01/15 06:08:46;;;;;;;14.30;4.40;;;4.60;99.90;;;;;;5035838;28;20103;-73
2024/01/15 06:11:12;;;;;;;15.55;3.95;;;4.60;99.90;;;;;;5036120;28;20033;-72
2024/01/15 06:13:37;;;;;;;18.13;4.22;;;4.60;99.90;;;;;;5036038;28;20488;-73
2024/01/15 06:16:13;;;;;;;18.67;3.78;;;4.60;99.90;;;;;;5035321;28;20044;-72
2024/01/15 06:18:38;;;;;;;17.10;3.10;;;4.60;99.90;;;;;;5036102;28;20039;-72
2024/01/15 06:21:05;;;;;;;12.00;3.20;;;4.60;99.90;;;;;;5035771;28;20037;-72
2024/01/15 06:23:30;;;;;;;12.13;3.25;;;4.50;99.90;;;;;;5035883;28;20420;-72
2024/01/15 06:25:56;;;;;;;20.35;4.10;;;4.40;99.90;;;;;;5035517;28;20032;-72
2024/01/15 06:28:21;;;;;;;16.75;5.20;;;4.30;99.90;;;;;;5035986;28;20124;-72
2024/01/15 06:30:47;;;;;;;15.77;5.03;;;4.20;99.90;;;;;;5035629;28;20029;-72
2024/01/15 06:33:13;;;;;;;21.33;5.47;;;4.10;99.90;;;;;;5035599;28;20521;-72
2024/01/15 06:35:38;;;;;;;19.92;5.28;;;4.00;99.90;;;;;;5035412;28;20128;-72
2024/01/15 06:38:04;;;;;;;17.50;5.10;;;4.00;99.90;;;;;;5035418;28;20022;-72
2024/01/15 06:40:29;;;;;;;21.98;5.40;;;3.90;99.90;;;;;;5035667;28;20096;-72
2024/01/15 06:42:55;;;;;;;23.25;4.93;;;3.80;99.90;;;;;;5035549;28;20362;-72
2024/01/15 06:45:20;;;;;;;16.33;4.55;;;3.70;99.90;;;;;;5035248;28;20470;-72
2024/01/15 06:47:46;;;;;;;19.60;5.50;;;3.70;99.90;;;;;;5034982;28;20524;-72
2024/01/15 06:50:11;;;;;;;21.88;4.63;;;3.80;99.90;;;;;;5033855;28;20029;-72
2024/01/15 06:52:37;;;;;;;21.38;4.70;;;3.80;99.90;;;;;;5034919;28;20038;-72
2024/01/15 06:55:03;;;;;;;11.13;3.60;;;3.80;99.90;;;;;;5034738;28;20032;-72
2024/01/15 06:57:29;;;;;;;11.95;2.88;;;3.90;99.90;;;;;;5033965;28;20033;-72
2024/01/15 06:59:54;;;;;;;10.40;3.17;;;3.90;99.90;;;;;;5034412;28;20032;-73
2024/01/15 07:02:20;;;;;;;15.00;4.03;;;3.90;99.90;;;;;;5035007;28;20091;-73
2024/01/15 07:04:45;;;;;;;12.52;3.20;;;3.80;99.90;;;;;;5035331;28;20033;-73
2024/01/15 07:07:11;;;;;;;12.48;3.05;;;3.70;99.90;;;;;;5035326;28;20028;-73
2024/01/15 07:09:36;;;;;;;11.18;3.33;;;3.70;99.90;;;;;;5035115;28;20045;-73
2024/01/15 07:12:03;;;;;;;13.93;3.25;;;3.70;99.90;;;;;;5034962;28;20033;-73
2024/01/15 07:14:28;;;;;;;13.75;3.50;;;3.70;99.90;;;;;;5034953;28;20017;-73
2024/01/15 07:16:54;;;;;;;19.30;4.18;;;3.70;99.90;;;;;;5034748;28;20026;-73
2024/01/15 07:19:19;;;;;;;16.25;3.92;;;3.70;99.90;;;;;;5034925;28;20453;-73
2024/01/15 07:21:45;;;;;;;20.10;4.40;;;3.60;99.90;;;;;;5034766;28;20033;-73
2024/01/15 07:24:10;;;;;;;13.70;3.90;;;3.60;99.90;;;;;;5034510;28;20025;-73
2024/01/15 07:26:36;;;;;;;15.80;4.05;;;3.50;99.90;;;;;;5034859;28;20040;-73
2024/01/15 07:29:01;;;;;;;14.07;4.53;;;3.60;99.90;;;;;;5034861;28;20025;-73
2024/01/15 07:31:27;;;;;;;19.50;4.70;;;3.60;99.90;;;;;;5034606;28;20037;-73
2024/01/15 07:33:52;;;;;;;21.75;4.72;;;3.60;99.90;;;;;;5034705;28;20090;-73
2024/01/15 07:36:18;;;;;;;10.88;3.35;;;3.70;99.90;;;;;;5033152;28;20028;-72
2024/01/15 07:38:43;;;;;;;8.82;3.08;;;3.70;99.90;;;;;;5034597;28;20454;-73
2024/01/15 07:41:09;;;;;;;23.00;4.10;;;3.70;99.90;;;;;;5034539;28;20027;-73
2024/01/15 07:43:34;;;;;;;13.23;3.88;;;3.70;99.90;;;;;;5034508;28;20453;-72
2024/01/15 07:46:00;;;;;;;17.35;4.47;;;3.60;99.90;;;;;;5034441;28;20107;-73
2024/01/15 07:48:27;;;;;;;21.35;4.78;;;3.60;99.90;;;;;;5034660;28;20029;-73
2024/01/15 07:50:52;;;;;;;12.93;3.92;;;3.60;99.90;;;;;;5034362;28;20032;-73
2024/01/15 07:53:18;;;;;;;14.25;3.58;;;3.60;99.90;;;;;;5034308;28;20025;-72
2024/01/15 07:55:45;;;;;;;18.85;3.88;;;3.60;99.90;;;;;;5034010;28;20037;-73
2024/01/15 07:58:11;;;;;;;20.15;5.00;;;3.60;99.90;;;;;;5033744;28;20465;-73
2024/01/15 08:00:37;;;;;;;20.60;4.35;;;3.70;99.90;;;;;;5034161;28;20029;-72
2024/01/15 08:03:02;;;;;;;19.73;3.85;;;3.70;99.90;;;;;;5033536;28;20051;-73
2024/01/15 08:05:28;;;;;;;23.30;3.92;;;3.70;99.90;;;;;;5033326;28;20056;-72
2024/01/15 08:07:53;;;;;;;18.75;3.78;;;3.70;99.90;;;;;;5033470;28;20077;-73
2024/01/15 08:10:19;;;;;;;17.08;3.55;;;3.70;99.90;;;;;;5033847;28;20045;-73
2024/01/15 08:12:44;;;;;;;12.95;3.60;;;3.70;99.90;;;;;;5033760;28;20025;-73
2024/01/15 08:15:10;;;;;;;16.77;4.05;;;3.80;99.90;;;;;;5033684;28;20026;-73
2024/01/15 08:17:36;;;;;;;15.20;3.45;;;3.90;99.90;;;;;;5033807;28;20030;-72
2024/01/15 08:20:02;;;;;;;11.55;3.28;;;3.90;99.90;;;;;;5033391;28;20029;-73
2024/01/15 08:22:27;;;;;;;14.65;2.90;;;3.90;99.90;;;;;;5033760;28;20488;-72
2024/01/15 08:24:55;;;;;;;16.35;3.10;;;3.80;99.90;;;;;;5033652;28;20112;-73
2024/01/15 08:27:20;;;;;;;18.20;3.60;;;3.80;99.90;;;;;;5033807;28;20096;-72
2024/01/15 08:29:47;;;;;;;25.17;4.10;;;3.70;99.90;;;;;;5033858;28;20128;-72
2024/01/15 08:32:15;;;;;;;22.40;4.68;;;3.60;99.90;;;;;;5033839;28;20033;-72
2024/01/15 08:34:41;;;;;;;20.63;3.92;;;3.60;99.90;;;;;;5032999;28;20104;-72
2024/01/15 08:37:06;;;;;;;22.27;4.60;;;3.50;99.90;;;;;;5033265;28;20030;-72
2024/01/15 08:39:32;;;;;;;16.98;3.97;;;3.60;99.90;;;;;;5033146;28;20373;-72
2024/01/15 08:41:57;;;;;;;20.40;3.80;;;3.70;99.90;;;;;;5033434;28;20021;-73
2024/01/15 08:44:23;;;;;;;17.00;3.45;;;3.70;99.90;;;;;;5030778;28;20033;-73
2024/01/15 08:46:48;;;;;;;16.17;3.10;;;3.90;99.90;;;;;;5031525;28;20486;-72
2024/01/15 08:49:14;;;;;;;11.05;2.50;;;4.00;99.90;;;;;;5032826;28;20493;-72
2024/01/15 08:51:40;;;;;;;12.88;2.30;;;4.00;99.90;;;;;;5031600;28;20029;-72
2024/01/15 08:54:05;;;;;;;14.80;2.63;;;4.00;99.90;;;;;;5032900;28;20061;-72
2024/01/15 08:56:31;;;;;;;12.82;2.72;;;4.00;99.90;;;;;;5033017;28;20032;-73
2024/01/15 08:58:56;;;;;;;12.73;2.60;;;3.90;99.90;;;;;;5032582;28;20504;-72
2024/01/15 09:01:23;;;;;;;11.27;2.67;;;3.90;99.90;;;;;;5032971;28;20116;-73
2024/01/15 09:03:48;;;;;;;9.63;2.50;;;3.80;99.90;;;;;;5032390;28;20030;-73
2024/01/15 09:06:14;;;;;;;14.55;2.70;;;3.90;99.90;;;;;;5032567;28;20474;-73
2024/01/15 09:08:39;;;;;;;10.32;2.63;;;3.90;99.90;;;;;;5032515;28;20040;-73
2024/01/15 09:11:05;;;;;;;11.20;2.63;;;3.80;99.90;;;;;;5032677;28;20029;-73
2024/01/15 09:13:30;;;;;;;12.70;2.85;;;3.90;99.90;;;;;;5032112;28;20018;-73
2024/01/15 09:15:58;;;;;;;12.20;2.53;;;3.80;99.90;;;;;;5032600;28;20022;-74
2024/01/15 09:18:23;;;;;;;12.00;2.63;;;3.90;99.90;;;;;;5032760;28;20041;-74
2024/01/15 09:20:49;;;;;;;15.60;2.63;;;4.00;99.90;;;;;;5032670;28;20411;-73
2024/01/15 09:23:14;;;;;;;13.70;3.30;;;4.00;99.90;;;;;;5032483;28;20033;-74
2024/01/15 09:25:40;;;;;;;17.25;3.00;;;4.20;99.90;;;;;;5032176;28;20029;-72
2024/01/15 09:28:05;;;;;;;19.30;3.22;;;4.40;99.90;;;;;;5032500;28;20104;-72
2024/01/15 09:30:31;;;;;;;11.57;2.78;;;4.60;99.90;;;;;;5032329;28;20048;-73
2024/01/15 09:32:57;;;;;;;14.98;3.05;;;4.80;99.90;;;;;;5032392;28;20069;-73
2024/01/15 09:35:22;;;;;;;12.38;2.63;;;4.90;99.90;;;;;;5032272;28;20033;-73
2024/01/15 09:37:48;;;;;;;14.90;2.80;;;5.00;99.90;;;;;;5032577;28;20373;-73
2024/01/15 09:40:17;;;;;;;15.35;3.13;;;5.00;99.90;;;;;;5032580;28;20029;-73
2024/01/15 09:42:43;;;;;;;12.25;2.72;;;5.00;99.90;;;;;;5032584;28;20073;-73
2024/01/15 09:45:09;;;;;;;13.45;2.70;;;5.10;99.90;;;;;;5032581;28;20037;-73
2024/01/15 09:47:36;;;;;;;14.88;2.90;;;5.10;99.90;;;;;;5032545;28;20025;-73
2024/01/15 09:50:03;;;;;;;21.73;3.17;;;5.20;99.90;;;;;;5032307;28;20087;-73
2024/01/15 09:52:34;;;;;;;14.75;3.05;;;5.20;99.90;;;;;;5032462;28;20421;-73
2024/01/15 09:55:03;;;;;;;22.00;3.65;;;5.20;99.90;;;;;;5032299;28;20029;-73
2024/01/15 09:57:29;;;;;;;13.52;3.22;;;5.10;99.90;;;;;;5032242;28;20057;-73
2024/01/15 09:59:57;;;;;;;15.23;2.83;;;5.00;99.90;;;;;;5031976;28;20103;-73
2024/01/15 10:02:23;;;;;;;13.63;2.45;;;5.00;99.90;;;;;;5032173;28;20074;-73
2024/01/15 10:04:48;;;;;;;12.10;2.45;;;4.90;99.90;;;;;;5032467;28;20466;-73
2024/01/15 10:07:18;;;;;;;13.93;2.38;;;5.10;99.90;;;;;;5032342;28;20022;-73
2024/01/15 10:09:45;;;;;;;14.73;3.25;;;5.30;99.90;;;;;;5032410;28;20046;-72
2024/01/15 10:12:11;;;;;;;8.63;2.38;;;5.40;99.90;;;;;;5032180;28;20042;-73
2024/01/15 10:14:37;;;;;;;11.35;2.35;;;5.50;99.90;;;;;;5030475;28;20041;-72
2024/01/15 10:17:13;;;;;;;8.57;2.00;;;5.50;99.90;;;;;;5032059;28;20029;-72
2024/01/15 10:19:39;;;;;;;7.15;1.50;;;5.40;99.90;;;;;;5031868;28;20458;-72
2024/01/15 10:22:04;;;;;;;8.98;1.75;;;5.30;99.90;;;;;;5032028;28;20061;-72
2024/01/15 10:24:30;;;;;;;8.52;2.05;;;5.20;99.90;;;;;;5031200;28;20112;-72
2024/01/15 10:27:06;;;;;;;8.95;1.90;;;5.10;99.90;;;;;;5035443;28;20028;-73
2024/01/15 10:29:31;;;;;;;11.30;2.00;;;5.00;99.90;;;;;;5035472;28;20449;-73
2024/01/15 10:31:57;;;;;;;11.82;2.45;;;4.90;99.90;;;;;;5035269;28;20072;-73
2024/01/15 10:34:23;;;;;;;14.40;2.80;;;4.90;99.90;;;;;;5035811;28;20145;-73
2024/01/15 10:36:55;;;;;;;12.13;2.85;;;4.90;99.90;;;;;;5035776;28;20386;-73
2024/01/15 10:39:24;;;;;;;;;;;4.90;99.90;;;;;;5035952;28;20033;-73
2024/01/15 10:41:50;;;;;;;13.90;3.45;;;4.90;99.90;;;;;;5035311;28;20552;-73
2024/01/15 10:44:17;;;;;;;12.20;2.53;;;4.90;99.90;;;;;;5035108;28;20120;-72
2024/01/15 10:46:43;;;;;;;10.50;2.58;;;4.80;99.90;;;;;;5035117;28;20063;-73
2024/01/15 10:49:10;;;;;;;10.07;3.33;;;4.70;99.90;;;;;;5034651;28;20458;-73
2024/01/15 10:51:36;;;;;;;9.43;3.05;;;4.60;99.90;;;;;;5035286;28;20033;-72
2024/01/15 10:54:02;;;;;;;11.57;2.50;;;4.50;99.90;;;;;;5035208;28;20033;-72
2024/01/15 10:56:31;;;;;;;11.52;2.95;;;4.60;99.90;;;;;;5034959;28;20034;-73
2024/01/15 10:58:57;;;;;;;16.33;3.38;;;4.50;99.90;;;;;;5035281;28;20021;-72
2024/01/15 11:01:23;;;;;;;11.05;3.25;;;4.50;99.90;;;;;;5035106;28;20445;-72
2024/01/15 11:03:49;;;;;;;10.82;3.00;;;4.40;99.90;;;;;;5033185;28;20040;-73
2024/01/15 11:06:22;;;;;;;9.75;2.50;;;4.40;99.90;;;;;;5034789;28;20377;-72
2024/01/15 11:08:52;;;;;;;12.90;2.92;;;4.40;99.90;;;;;;5034879;28;20116;-73
2024/01/15 11:11:18;;;;;;;10.35;2.22;;;4.30;99.90;;;;;;5035049;28;20033;-72
2024/01/15 11:13:46;;;;;;;9.23;2.38;;;4.20;99.90;;;;;;5032927;28;20683;-72
2024/01/15 11:16:13;;;;;;;13.45;2.65;;;4.20;99.90;;;;;;5034610;28;20030;-72
2024/01/15 11:19:01;;;;;;;14.82;2.60;;;4.30;99.90;;;;;;5034659;28;20040;-72
2024/01/15 11:21:29;;;;;;;11.55;2.75;;;4.40;99.90;;;;;;5034883;28;20040;-73
2024/01/15 11:24:01;;;;;;;17.38;2.70;;;4.50;99.90;;;;;;5034306;28;20458;-73
2024/01/15 11:26:27;;;;;;;;;;;4.70;99.90;;;;;;5034509;28;20470;-72
2024/01/15 11:28:52;;;;;;;16.15;2.78;;;4.80;99.90;;;;;;5034260;28;19905;-72
2024/01/15 11:31:18;;;;;;;16.55;2.95;;;4.80;99.90;;;;;;5034992;28;20030;-72
2024/01/15 11:33:50;;;;;;;16.45;2.72;;;5.00;99.90;;;;;;5033745;28;20389;-72
2024/01/15 11:36:15;;;;;;;14.23;2.70;;;5.40;99.90;;;;;;5028386;28;20371;-73
2024/01/15 11:38:41;;;;;;;16.55;2.80;;;5.80;99.90;;;;;;5034279;28;20520;-73
2024/01/15 11:41:16;;;;;;;16.98;3.03;;;6.00;99.90;;;;;;5033883;28;20432;-72
2024/01/15 11:43:42;;;;;;;17.90;2.78;;;6.20;99.90;;;;;;5033965;28;20038;-73
2024/01/15 11:46:14;;;;;;;19.70;3.03;;;6.20;99.90;;;;;;5033905;28;20037;-73
2024/01/15 11:48:45;;;;;;;15.02;3.03;;;6.20;99.90;;;;;;5033377;28;20053;-73
2024/01/15 11:51:12;;;;;;;19.20;3.63;;;6.20;99.90;;;;;;5033560;28;20033;-73
2024/01/15 11:53:45;;;;;;;16.52;2.80;;;6.20;99.90;;;;;;5034011;28;20034;-73
2024/01/15 11:56:16;;;;;;;14.73;2.33;;;6.10;99.90;;;;;;5033485;28;20385;-74
2024/01/15 11:58:42;;;;;;;;;;;6.00;99.90;;;;;;5034406;28;20092;-73
2024/01/15 12:01:08;;;;;;;19.20;2.78;;;6.00;99.90;;;;;;5034174;28;19905;-74
2024/01/15 12:03:34;;;;;;;22.38;3.10;;;5.90;99.90;;;;;;5033820;28;20546;-73
2024/01/15 12:06:00;;;;;;;19.40;2.97;;;6.00;99.90;;;;;;5034192;28;20037;-72
2024/01/15 12:08:27;;;;;;;21.60;3.50;;;6.10;99.90;;;;;;5033698;28;20113;-72
2024/01/15 12:10:52;;;;;;;17.85;3.17;;;6.20;99.90;;;;;;5033760;28;20069;-72
2024/01/15 12:13:19;;;;;;;22.05;3.65;;;6.20;99.90;;;;;;5033519;28;20441;-72
2024/01/15 12:15:46;;;;;;;18.23;3.30;;;6.10;99.90;;;;;;5033704;28;20029;-72
2024/01/15 12:18:14;;;;;;;17.25;3.22;;;5.90;99.90;;;;;;5033764;28;20174;-72
2024/01/15 12:20:42;;;;;;;23.70;3.70;;;5.80;99.90;;;;;;5032912;28;20478;-72
2024/01/15 12:23:08;;;;;;;18.02;3.20;;;5.70;99.90;;;;;;5033628;28;20030;-73
2024/01/15 12:25:34;;;;;;;12.30;2.33;;;5.90;99.90;;;;;;5033259;28;20021;-72
2024/01/15 12:28:00;;;;;;;12.63;1.92;;;6.50;99.90;;;;;;5033703;28;20119;-73
2024/01/15 12:30:27;;;;;;;12.93;2.30;;;7.10;99.90;;;;;;5033599;28;20018;-73
2024/01/15 12:32:53;;;;;;;11.50;2.25;;;7.70;99.90;;;;;;5033353;28;20120;-73
2024/01/15 12:35:19;;;;;;;11.43;2.33;;;8.30;99.90;;;;;;5033047;28;20148;-73
2024/01/15 12:37:47;;;;;;;10.40;2.45;;;8.80;99.90;;;;;;5032953;28;20069;-73
2024/01/15 12:40:14;;;;;;;12.48;2.60;;;9.10;99.90;;;;;;5032226;28;20386;-73
2024/01/15 12:42:40;;;;;;;12.15;2.53;;;9.40;99.90;;;;;;5033220;28;20108;-73